Time;durP1;ratioP1;P1;durP2;ratioP2;P2;SDS_P1;SDS_P2;PMS_P1;PMS_P2;Temp;Humidity;BMP_temperature;BMP_pressure;BME280_temperature;BME280_humidity;BME280_pressure;Samples;Min_cycle;Max_cycle;Signal;HPM_P1;HPM_P2
2023/01/19 00:00:55;;;;;;;12.05;7.88;;;;;;;3.33;65.52;98852.78;5036464;28;20053;-62
2023/01/19 00:03:24;;;;;;;12.43;7.78;;;;;;;3.27;64.68;98859.50;5047638;28;20049;-62
2023/01/19 00:05:56;;;;;;;10.13;8.13;;;;;;;3.17;64.91;98852.28;5049805;28;20413;-62
2023/01/19 00:08:23;;;;;;;11.02;8.10;;;;;;;3.17;64.92;98855.03;5050430;28;20119;-62
2023/01/19 00:10:51;;;;;;;10.90;8.48;;;;;;;3.16;65.08;98853.38;5049122;28;20060;-62
2023/01/19 00:13:22;;;;;;;10.30;7.93;;;;;;;3.16;65.67;98847.88;5048398;28;20060;-62
2023/01/19 00:15:49;;;;;;;10.57;7.65;;;;;;;3.27;65.97;98858.69;5052925;28;20056;-62
2023/01/19 00:18:17;;;;;;;14.30;7.82;;;;;;;3.28;64.92;98854.84;5040835;28;20049;-62
2023/01/19 00:20:47;;;;;;;12.85;8.55;;;;;;;3.24;65.25;98855.44;5049334;28;20417;-62
2023/01/19 00:23:19;;;;;;;11.25;8.18;;;;;;;3.33;65.28;98852.78;5046476;28;20053;-62
2023/01/19 00:25:47;;;;;;;9.40;7.70;;;;;;;3.41;64.65;98854.81;5048496;28;20061;-62
2023/01/19 00:28:17;;;;;;;11.38;8.02;;;;;;;3.49;65.63;98849.72;5052252;28;20053;-62
2023/01/19 00:30:51;;;;;;;10.55;7.53;;;;;;;3.44;65.07;98845.97;5048245;28;20523;-62
2023/01/19 00:33:18;;;;;;;11.70;8.13;;;;;;;3.57;64.44;98841.56;5048594;28;20055;-62
2023/01/19 00:35:51;;;;;;;12.30;8.38;;;;;;;3.57;64.95;98841.56;5052142;28;20075;-61
2023/01/19 00:38:18;;;;;;;12.27;7.80;;;;;;;3.51;65.25;98855.72;5050247;28;20049;-62
2023/01/19 00:40:45;;;;;;;11.35;8.43;;;;;;;3.49;65.18;98835.97;5046753;28;20377;-62
2023/01/19 00:43:12;;;;;;;11.00;8.27;;;;;;;3.47;65.55;98841.78;5051329;28;20049;-63
2023/01/19 00:45:41;;;;;;;9.82;7.47;;;;;;;3.46;64.47;98845.63;5053060;28;20052;-62
2023/01/19 00:48:10;;;;;;;10.25;8.13;;;;;;;3.51;65.35;98840.03;5049956;28;20052;-62
2023/01/19 00:50:39;;;;;;;15.52;9.20;;;;;;;3.52;65.44;98847.16;5045917;28;20072;-62
2023/01/19 00:53:06;;;;;;;9.43;7.35;;;;;;;3.54;64.51;98847.66;5046778;28;21442;-62
2023/01/19 00:55:34;;;;;;;11.77;8.25;;;;;;;3.62;65.34;98860.69;5048709;28;20060;-62
2023/01/19 00:58:02;;;;;;;10.88;8.52;;;;;;;3.63;64.83;98851.34;5049934;28;20052;-60
2023/01/19 01:00:29;;;;;;;10.52;8.18;;;;;;;3.64;64.87;98858.47;5051585;28;20057;-63
2023/01/19 01:03:00;;;;;;;13.27;8.50;;;;;;;3.69;64.30;98853.97;5047357;28;20059;-62
2023/01/19 01:05:28;;;;;;;11.52;7.85;;;;;;;3.79;64.88;98870.28;5053423;28;20520;-64
2023/01/19 01:07:55;;;;;;;10.70;7.30;;;;;;;3.83;65.19;98844.53;5048875;28;20055;-61
2023/01/19 01:10:24;;;;;;;13.20;8.32;;;;;;;3.85;64.14;98842.31;5048249;28;20497;-62
2023/01/19 01:12:52;;;;;;;9.98;7.93;;;;;;;3.88;65.20;98849.13;5049493;28;20068;-63
2023/01/19 01:15:20;;;;;;;10.70;7.80;;;;;;;3.82;64.36;98842.09;5050188;28;20412;-62
2023/01/19 01:17:47;;;;;;;9.05;7.60;;;;;;;3.77;64.67;98858.75;5046372;28;20050;-62
2023/01/19 01:20:17;;;;;;;11.02;8.32;;;;;;;3.75;65.30;98867.31;5048304;28;20489;-62
2023/01/19 01:22:49;;;;;;;11.95;7.72;;;;;;;3.83;65.10;98865.78;5047006;28;20045;-62
2023/01/19 01:25:18;;;;;;;10.00;7.70;;;;;;;3.80;63.98;98853.44;5040382;28;20387;-62
2023/01/19 01:27:46;;;;;;;10.77;7.85;;;;;;;3.79;65.39;98859.25;5043845;28;20054;-62
2023/01/19 01:30:14;;;;;;;11.07;7.50;;;;;;;3.76;65.04;98877.22;5048072;28;20053;-62
2023/01/19 01:32:42;;;;;;;9.50;7.22;;;;;;;3.66;64.84;98878.25;5048477;28;20401;-62
2023/01/19 01:35:10;;;;;;;11.93;8.45;;;;;;;3.73;64.66;98868.75;5048862;28;20140;-62
2023/01/19 01:37:38;;;;;;;11.77;7.97;;;;;;;3.85;64.40;98880.06;5047982;28;20494;-62
2023/01/19 01:40:10;;;;;;;11.40;8.35;;;;;;;3.87;64.95;98877.81;5042558;28;20049;-62
2023/01/19 01:42:39;;;;;;;10.35;8.23;;;;;;;3.88;64.54;98873.09;5047105;28;20045;-62
2023/01/19 01:45:27;;;;;;;10.87;7.87;;;;;;;3.72;65.00;98867.13;5047181;28;20053;-62
2023/01/19 01:47:58;;;;;;;9.93;7.97;;;;;;;3.64;64.33;98880.47;5047455;28;20053;-61
2023/01/19 01:50:30;;;;;;;10.30;8.23;;;;;;;3.75;64.36;98863.75;5044479;28;20053;-62
2023/01/19 01:53:02;;;;;;;12.70;8.73;;;;;;;3.66;64.58;98858.16;5047241;28;20506;-61
2023/01/19 01:55:32;;;;;;;11.52;8.10;;;;;;;3.63;65.59;98861.50;5041186;28;20052;-62
2023/01/19 01:58:02;;;;;;;11.35;8.75;;;;;;;3.63;65.40;98862.34;5048029;28;20068;-62
2023/01/19 02:02:49;;;;;;;10.65;8.32;;;;;;;3.57;65.99;98869.09;5032798;28;20132;-62
2023/01/19 02:03:20;;;;;;;11.57;8.35;;;;;;;3.38;65.65;98871.94;5039775;28;20394;-62
2023/01/19 02:05:47;;;;;;;10.65;8.77;;;;;;;3.53;66.50;98868.06;5050936;28;20052;-62
2023/01/19 02:13:49;;;;;;;11.20;8.07;;;;;;;3.58;66.33;98869.88;5042870;28;20064;-61
2023/01/19 02:16:17;;;;;;;11.57;7.95;;;;;;;3.64;64.94;98872.22;5035174;28;20049;-62
2023/01/19 02:18:45;;;;;;;10.75;8.63;;;;;;;3.71;65.22;98868.25;5034584;28;20049;-61
2023/01/19 02:21:18;;;;;;;11.57;9.10;;;;;;;3.73;64.31;98877.00;5038573;28;20056;-62
2023/01/19 02:23:49;;;;;;;10.02;7.38;;;;;;;3.75;65.52;98864.56;5035890;28;20058;-61
2023/01/19 02:26:22;;;;;;;13.45;7.75;;;;;;;3.83;64.28;98871.28;5036518;28;20060;-62
2023/01/19 02:28:52;;;;;;;11.15;7.05;;;;;;;3.76;64.96;98876.38;5039914;28;20048;-62
2023/01/19 02:31:20;;;;;;;12.15;8.20;;;;;;;3.69;65.71;98862.22;5051272;28;20067;-62
2023/01/19 02:33:50;;;;;;;10.30;7.68;;;;;;;3.84;64.63;98853.63;5045591;28;20052;-62
2023/01/19 02:36:22;;;;;;;10.25;7.90;;;;;;;3.92;65.38;98852.88;5050879;28;20409;-62
2023/01/19 02:38:54;;;;;;;10.25;7.20;;;;;;;3.97;64.18;98850.03;5039660;28;20052;-62
2023/01/19 02:41:26;;;;;;;12.27;7.30;;;;;;;3.97;63.85;98866.56;5039974;28;20056;-62
2023/01/19 02:43:55;;;;;;;9.13;7.03;;;;;;;4.06;64.36;98856.41;5049051;28;20045;-62
2023/01/19 02:46:22;;;;;;;9.77;6.97;;;;;;;3.93;63.38;98854.53;5050855;28;20061;-61
2023/01/19 02:48:50;;;;;;;8.15;6.72;;;;;;;4.02;64.31;98862.88;5045254;28;20493;-62
2023/01/19 02:51:20;;;;;;;9.95;6.88;;;;;;;3.96;63.44;98855.84;5038425;28;20053;-62
2023/01/19 02:54:11;;;;;;;9.77;6.97;;;;;;;3.91;63.62;98865.03;5046675;28;20045;-62
2023/01/19 02:56:48;;;;;;;8.05;6.70;;;;;;;3.82;64.32;98845.69;5050587;28;20052;-62
2023/01/19 02:59:27;;;;;;;9.82;6.72;;;;;;;3.86;64.47;98841.19;5041115;28;20050;-62
2023/01/19 03:02:17;;;;;;;10.02;7.35;;;;;;;3.83;63.75;98838.22;5037059;28;20048;-62
2023/01/19 03:04:59;;;;;;;9.23;6.50;;;;;;;3.74;64.81;98846.41;5042919;28;20053;-62
2023/01/19 03:07:36;;;;;;;9.18;6.95;;;;;;;3.60;64.73;98840.91;5048346;28;20053;-62
2023/01/19 03:10:12;;;;;;;9.32;6.70;;;;;;;3.64;64.38;98849.38;5038800;28;20060;-61
2023/01/19 03:12:45;;;;;;;10.98;6.72;;;;;;;3.53;64.27;98836.94;5039706;28;20057;-61
2023/01/19 03:15:18;;;;;;;8.35;6.38;;;;;;;3.56;64.95;98842.66;5051756;28;20076;-61
2023/01/19 03:17:49;;;;;;;8.45;6.35;;;;;;;3.55;65.49;98837.47;5050883;28;20056;-61
2023/01/19 03:20:23;;;;;;;9.95;6.38;;;;;;;3.54;65.10;98836.66;5052102;28;20049;-62
2023/01/19 03:22:55;;;;;;;9.40;6.25;;;;;;;3.54;65.72;98842.16;5048816;28;20053;-62
2023/01/19 03:25:26;;;;;;;10.48;7.00;;;;;;;3.60;65.21;98838.16;5042209;28;20061;-61
2023/01/19 03:27:57;;;;;;;9.68;6.97;;;;;;;3.55;65.51;98824.53;5044646;28;20069;-63
2023/01/19 03:30:28;;;;;;;9.43;6.80;;;;;;;3.65;64.74;98840.00;5049079;28;20049;-61
2023/01/19 03:33:01;;;;;;;9.50;6.43;;;;;;;3.66;64.53;98839.69;5045198;28;20053;-62
2023/01/19 03:35:34;;;;;;;8.48;6.00;;;;;;;3.65;64.11;98835.31;5043832;28;20414;-62
2023/01/19 03:38:07;;;;;;;7.70;6.25;;;;;;;3.79;65.02;98838.03;5051000;28;20469;-62
2023/01/19 03:40:37;;;;;;;9.45;5.90;;;;;;;3.72;63.74;98834.09;5051252;28;20048;-62
2023/01/19 03:43:06;;;;;;;9.27;6.28;;;;;;;3.71;65.05;98836.00;5054260;28;20049;-62
2023/01/19 03:45:37;;;;;;;7.67;6.37;;;;;;;3.77;65.19;98836.72;5047735;28;20054;-62
2023/01/19 03:48:05;;;;;;;10.50;7.25;;;;;;;3.77;64.06;98829.25;5052463;28;20481;-62
2023/01/19 03:50:32;;;;;;;9.60;6.72;;;;;;;3.82;64.30;98833.84;5054854;28;20053;-62
2023/01/19 03:53:07;;;;;;;10.23;6.57;;;;;;;3.85;63.55;98841.50;5053018;28;20049;-62
2023/01/19 03:55:38;;;;;;;9.77;6.45;;;;;;;3.72;64.12;98831.34;5050499;28;20428;-62
2023/01/19 03:58:05;;;;;;;9.93;6.20;;;;;;;3.81;64.04;98827.53;5049115;28;20053;-62
2023/01/19 04:00:32;;;;;;;9.60;6.47;;;;;;;3.92;64.44;98819.84;5042641;28;20055;-62
2023/01/19 04:03:00;;;;;;;9.25;6.28;;;;;;;3.82;64.00;98825.56;5052248;28;20052;-62
2023/01/19 04:05:28;;;;;;;9.27;6.85;;;;;;;3.88;64.04;98829.84;5052881;28;20055;-62
2023/01/19 04:07:55;;;;;;;11.32;5.90;;;;;;;3.89;63.38;98825.97;5052592;28;20053;-62
2023/01/19 04:10:23;;;;;;;8.95;5.90;;;;;;;3.78;64.92;98835.56;5053186;28;20053;-62
2023/01/19 04:12:57;;;;;;;10.25;6.10;;;;;;;3.80;64.02;98834.16;5051606;28;20052;-62
2023/01/19 04:15:25;;;;;;;7.82;5.38;;;;;;;3.80;64.22;98838.84;5042945;28;20049;-62
2023/01/19 04:17:52;;;;;;;8.45;5.75;;;;;;;3.84;63.92;98839.84;5036364;28;20060;-62
2023/01/19 04:20:20;;;;;;;9.52;5.50;;;;;;;3.87;64.82;98833.72;5038256;28;20056;-62
2023/01/19 04:22:47;;;;;;;8.57;6.13;;;;;;;3.94;63.35;98839.63;5051096;28;20060;-62
2023/01/19 04:25:16;;;;;;;11.10;6.40;;;;;;;3.99;64.12;98844.19;5052691;28;20473;-62
2023/01/19 04:27:43;;;;;;;8.90;5.68;;;;;;;3.87;63.44;98850.25;5044123;28;20061;-62
2023/01/19 04:30:13;;;;;;;10.30;5.85;;;;;;;3.93;63.60;98840.75;5051786;28;20060;-62
2023/01/19 04:32:40;;;;;;;9.55;6.13;;;;;;;4.03;64.60;98846.03;5050004;28;20374;-62
2023/01/19 04:35:08;;;;;;;7.32;5.45;;;;;;;3.91;63.82;98837.50;5053341;28;20064;-62
2023/01/19 04:37:35;;;;;;;9.05;5.68;;;;;;;3.94;64.92;98828.59;5051221;28;20403;-62
2023/01/19 04:40:04;;;;;;;9.00;5.70;;;;;;;4.05;64.89;98835.53;5052538;28;20064;-62
2023/01/19 04:42:31;;;;;;;8.95;5.88;;;;;;;4.10;64.12;98833.78;5051152;28;20401;-62
2023/01/19 04:44:58;;;;;;;8.27;5.78;;;;;;;4.10;64.24;98831.00;5052981;28;20485;-62
2023/01/19 04:47:27;;;;;;;9.82;5.75;;;;;;;3.97;65.07;98828.00;5050272;28;20124;-61
2023/01/19 04:49:54;;;;;;;7.00;5.10;;;;;;;4.03;64.31;98848.78;5052620;28;20053;-62
2023/01/19 04:52:21;;;;;;;8.77;5.50;;;;;;;3.86;64.53;98834.84;5051702;28;20477;-62
2023/01/19 04:54:48;;;;;;;8.98;5.28;;;;;;;3.94;65.19;98830.56;5050476;28;20060;-62
2023/01/19 04:57:16;;;;;;;5.85;4.82;;;;;;;3.93;65.01;98832.50;5050924;28;20056;-62
2023/01/19 04:59:43;;;;;;;9.02;5.57;;;;;;;3.89;65.10;98831.47;5053619;28;20064;-62
2023/01/19 05:02:10;;;;;;;8.52;5.18;;;;;;;3.97;64.99;98828.00;5051701;28;20056;-62
2023/01/19 05:04:39;;;;;;;10.65;5.65;;;;;;;3.98;66.00;98837.88;5049753;28;20044;-62
2023/01/19 05:07:06;;;;;;;7.80;5.15;;;;;;;3.96;65.59;98833.81;5048557;28;20482;-62
2023/01/19 05:09:34;;;;;;;8.80;6.10;;;;;;;3.97;65.43;98836.25;5037459;28;20417;-62
2023/01/19 05:12:01;;;;;;;7.68;5.35;;;;;;;3.95;67.31;98833.00;5044230;28;20056;-62
2023/01/19 05:14:28;;;;;;;9.40;5.60;;;;;;;3.71;67.73;98840.69;5053261;28;20049;-62
2023/01/19 05:16:55;;;;;;;10.48;6.47;;;;;;;3.58;69.20;98836.84;5052761;28;20049;-62
2023/01/19 05:19:23;;;;;;;10.68;7.35;;;;;;;3.24;71.89;98849.13;5052882;28;20053;-62
2023/01/19 05:21:51;;;;;;;12.23;7.57;;;;;;;3.13;72.46;98833.91;5047495;28;20056;-63
2023/01/19 05:24:19;;;;;;;9.60;6.78;;;;;;;2.99;74.03;98848.50;5047964;28;20053;-63
2023/01/19 05:26:46;;;;;;;12.50;6.20;;;;;;;2.92;73.92;98844.50;5047896;28;20512;-62
2023/01/19 05:29:13;;;;;;;8.85;6.50;;;;;;;2.89;74.28;98842.38;5050116;28;20417;-63
2023/01/19 05:31:40;;;;;;;11.40;7.32;;;;;;;2.94;75.77;98834.00;5048224;28;20057;-62
2023/01/19 05:34:11;;;;;;;9.02;6.22;;;;;;;2.94;76.04;98836.75;5047795;28;20520;-62
2023/01/19 05:36:38;;;;;;;9.73;6.45;;;;;;;2.82;76.18;98840.03;5050386;28;20413;-62
2023/01/19 05:39:07;;;;;;;12.02;7.65;;;;;;;2.72;77.86;98854.75;5051145;28;20049;-62
2023/01/19 05:41:34;;;;;;;11.93;7.22;;;;;;;2.57;78.79;98847.59;5046886;28;20050;-62
2023/01/19 05:44:02;;;;;;;10.90;7.47;;;;;;;2.62;78.60;98843.94;5047370;28;20500;-62
2023/01/19 05:46:29;;;;;;;13.00;7.93;;;;;;;2.59;80.00;98841.81;5048946;28;20508;-62
2023/01/19 05:48:57;;;;;;;11.30;7.75;;;;;;;2.52;80.22;98835.88;5048633;28;20391;-63
2023/01/19 05:51:24;;;;;;;12.25;7.97;;;;;;;2.60;81.19;98835.19;5039547;28;20050;-62
2023/01/19 05:53:51;;;;;;;10.93;7.50;;;;;;;2.60;80.02;98843.44;5036959;28;20053;-62
2023/01/19 05:56:20;;;;;;;13.20;8.40;;;;;;;2.55;79.94;98835.28;5033810;28;20409;-62
2023/01/19 05:58:47;;;;;;;12.52;8.45;;;;;;;2.53;80.48;98837.53;5049147;28;20060;-63
2023/01/19 06:01:14;;;;;;;12.02;8.25;;;;;;;2.34;81.40;98838.38;5045399;28;20489;-62
2023/01/19 06:03:41;;;;;;;11.98;8.40;;;;;;;2.41;81.85;98847.03;5049036;28;20064;-62
2023/01/19 06:06:09;;;;;;;12.82;8.60;;;;;;;2.41;83.59;98844.28;5045938;28;20060;-62
2023/01/19 06:08:36;;;;;;;12.63;8.48;;;;;;;2.40;82.41;98850.91;5050025;28;20045;-62
2023/01/19 06:11:05;;;;;;;13.65;8.88;;;;;;;2.52;82.16;98855.09;5044171;28;20049;-62
2023/01/19 06:13:34;;;;;;;10.13;7.15;;;;;;;2.46;81.52;98845.31;5045132;28;20394;-62
2023/01/19 06:16:03;;;;;;;11.20;7.57;;;;;;;2.51;81.79;98859.00;5039973;28;20576;-63
2023/01/19 06:18:30;;;;;;;10.18;7.75;;;;;;;2.48;82.20;98849.41;5047128;28;20049;-62
2023/01/19 06:20:58;;;;;;;14.52;9.00;;;;;;;2.55;82.41;98860.03;5042792;28;20459;-62
2023/01/19 06:23:25;;;;;;;14.20;9.45;;;;;;;2.58;81.68;98863.00;5042045;28;20071;-62
2023/01/19 06:25:52;;;;;;;13.20;9.32;;;;;;;2.56;82.22;98869.88;5046570;28;20512;-62
2023/01/19 06:28:20;;;;;;;15.10;9.07;;;;;;;2.66;81.29;98886.22;5043777;28;20053;-61
2023/01/19 06:30:50;;;;;;;11.23;8.13;;;;;;;2.68;80.88;98881.22;5042721;28;20059;-62
2023/01/19 06:33:18;;;;;;;13.27;8.77;;;;;;;2.69;81.46;98882.03;5044237;28;20048;-62
2023/01/19 06:35:46;;;;;;;11.55;8.13;;;;;;;2.68;80.44;98883.97;5037714;28;20056;-62
2023/01/19 06:38:14;;;;;;;12.15;7.70;;;;;;;2.77;80.52;98873.09;5047953;28;20048;-62
2023/01/19 06:40:41;;;;;;;11.50;8.07;;;;;;;2.76;80.86;98886.03;5047249;28;20063;-62
2023/01/19 06:43:08;;;;;;;10.93;7.75;;;;;;;2.71;80.16;98882.53;5048103;28;20080;-64
2023/01/19 06:45:38;;;;;;;9.48;6.82;;;;;;;2.76;81.69;98886.03;5047145;28;20052;-65
2023/01/19 06:48:06;;;;;;;9.95;8.23;;;;;;;2.76;81.06;98887.97;5047054;28;20060;-65
2023/01/19 06:50:34;;;;;;;8.65;6.80;;;;;;;2.73;81.63;98889.41;5045072;28;20056;-65
2023/01/19 06:53:02;;;;;;;11.30;8.02;;;;;;;2.61;81.12;98884.38;5046254;28;20072;-65
2023/01/19 06:55:29;;;;;;;9.13;7.10;;;;;;;2.64;82.70;98888.44;5041037;28;20049;-66
2023/01/19 06:57:57;;;;;;;11.35;8.27;;;;;;;2.78;82.57;98902.22;5045964;28;20052;-66
2023/01/19 07:00:25;;;;;;;15.63;10.70;;;;;;;2.94;84.69;98900.00;5045347;28;20045;-65
2023/01/19 07:02:53;;;;;;;15.85;10.18;;;;;;;3.04;83.54;98906.16;5054561;28;20520;-66
2023/01/19 07:05:22;;;;;;;18.95;11.60;;;;;;;3.20;84.44;98919.63;5048597;28;20056;-66
2023/01/19 07:07:52;;;;;;;14.52;9.98;;;;;;;3.27;84.09;98921.97;5053979;28;20048;-67
2023/01/19 07:10:19;;;;;;;9.98;6.75;;;;;;;3.22;84.19;98917.41;5049618;28;20049;-66
2023/01/19 07:12:47;;;;;;;11.98;7.28;;;;;;;3.23;83.81;98913.50;5046809;28;20060;-66
2023/01/19 07:15:15;;;;;;;12.77;8.85;;;;;;;3.21;84.25;98922.09;5049790;28;20041;-66
2023/01/19 07:17:42;;;;;;;10.00;6.90;;;;;;;3.23;84.69;98933.59;5052580;28;20045;-66
2023/01/19 07:20:11;;;;;;;11.80;7.35;;;;;;;3.19;84.84;98923.47;5043188;28;20080;-66
2023/01/19 07:22:42;;;;;;;9.00;5.75;;;;;;;3.10;83.20;98926.13;5052610;28;20048;-66
2023/01/19 07:25:10;;;;;;;6.75;4.80;;;;;;;3.08;82.55;98928.38;5050500;28;20064;-63
2023/01/19 07:27:37;;;;;;;7.53;5.47;;;;;;;2.95;82.53;98951.16;5046045;28;20052;-64
2023/01/19 07:30:06;;;;;;;8.68;5.97;;;;;;;3.16;81.58;98948.88;5044611;28;20067;-64
2023/01/19 07:32:34;;;;;;;6.78;4.68;;;;;;;3.12;82.37;98954.16;5041188;28;20064;-64
2023/01/19 07:35:03;;;;;;;7.82;5.55;;;;;;;3.11;82.27;98955.28;5044074;28;20053;-65
2023/01/19 07:37:31;;;;;;;7.20;4.65;;;;;;;2.97;81.32;98965.44;5040003;28;20057;-65
2023/01/19 07:40:02;;;;;;;6.03;3.85;;;;;;;2.96;81.12;98967.38;5055190;28;20056;-65
2023/01/19 07:42:30;;;;;;;6.63;4.57;;;;;;;2.91;82.00;98972.94;5045913;28;20049;-65
2023/01/19 07:44:58;;;;;;;9.05;5.75;;;;;;;2.98;82.63;98978.06;5043961;28;20049;-64
2023/01/19 07:47:26;;;;;;;6.03;3.55;;;;;;;2.94;82.30;98983.34;5052222;28;20059;-64
2023/01/19 07:49:56;;;;;;;5.90;4.25;;;;;;;2.99;81.76;98976.94;5053813;28;20413;-64
2023/01/19 07:52:24;;;;;;;5.50;4.25;;;;;;;2.98;81.18;98975.31;5053357;28;20053;-64
2023/01/19 07:54:51;;;;;;;4.80;3.80;;;;;;;3.04;80.60;98974.94;5039741;28;20046;-65
2023/01/19 07:57:21;;;;;;;5.65;4.43;;;;;;;2.99;80.77;98979.69;5034897;28;20486;-63
2023/01/19 07:59:49;;;;;;;6.20;4.57;;;;;;;3.10;81.13;98985.84;5050388;28;20052;-65
2023/01/19 08:02:17;;;;;;;5.40;3.50;;;;;;;3.20;80.92;98994.72;5052194;28;20053;-65
2023/01/19 08:04:44;;;;;;;5.85;3.58;;;;;;;3.16;82.02;99001.13;5051916;28;20049;-65
2023/01/19 08:07:12;;;;;;;7.40;3.83;;;;;;;3.21;81.58;99001.88;5053709;28;20071;-65
2023/01/19 08:09:39;;;;;;;5.60;3.40;;;;;;;3.28;81.07;99004.22;5053118;28;20052;-65
2023/01/19 08:12:06;;;;;;;5.30;3.88;;;;;;;3.27;81.40;99007.28;5050894;28;20477;-65
2023/01/19 08:14:35;;;;;;;6.85;4.40;;;;;;;3.28;81.26;99012.50;5048214;28;20424;-65
2023/01/19 08:17:03;;;;;;;6.78;4.32;;;;;;;3.27;79.89;99007.28;5042969;28;20045;-65
2023/01/19 08:19:30;;;;;;;6.35;4.05;;;;;;;3.27;79.72;99021.03;5046681;28;20057;-64
2023/01/19 08:21:58;;;;;;;5.53;3.97;;;;;;;3.32;80.53;99016.28;5052291;28;20444;-65
2023/01/19 08:24:27;;;;;;;5.80;3.92;;;;;;;3.25;79.80;99027.69;5045604;28;20516;-64
2023/01/19 08:26:59;;;;;;;8.97;5.83;;;;;;;3.34;80.27;99014.03;5034503;28;20057;-64
2023/01/19 08:29:26;;;;;;;10.82;6.18;;;;;;;3.34;79.94;99018.69;5041920;28;20480;-65
2023/01/19 08:31:56;;;;;;;14.48;6.10;;;;;;;3.27;80.83;99029.28;5040613;28;20061;-63
2023/01/19 08:34:23;;;;;;;9.57;6.05;;;;;;;3.38;80.71;99036.25;5041971;28;20390;-63
2023/01/19 08:36:50;;;;;;;10.18;7.68;;;;;;;3.43;79.96;99045.22;5041810;28;20056;-64
2023/01/19 08:39:17;;;;;;;11.85;7.50;;;;;;;3.49;79.88;99042.41;5052829;28;20052;-65
2023/01/19 08:41:45;;;;;;;11.77;6.63;;;;;;;3.57;81.10;99053.53;5053703;28;20060;-65
2023/01/19 08:44:12;;;;;;;12.82;7.60;;;;;;;3.65;80.82;99046.50;5049547;28;20053;-64
2023/01/19 08:46:39;;;;;;;11.43;7.40;;;;;;;3.71;80.80;99049.97;5046496;28;20402;-65
2023/01/19 08:49:08;;;;;;;10.73;7.22;;;;;;;3.80;79.43;99051.72;5050824;28;20064;-64
2023/01/19 08:51:35;;;;;;;10.98;8.00;;;;;;;3.79;79.70;99047.34;5052813;28;20070;-65
2023/01/19 08:54:03;;;;;;;12.77;8.60;;;;;;;3.80;78.67;99048.97;5040218;28;20053;-65
2023/01/19 08:56:30;;;;;;;17.55;9.27;;;;;;;3.85;78.24;99053.56;5045159;28;20045;-65
2023/01/19 08:58:57;;;;;;;16.80;9.43;;;;;;;4.00;79.48;99053.25;5050377;28;20504;-65
2023/01/19 09:01:24;;;;;;;13.73;9.18;;;;;;;4.00;78.07;99058.78;5033455;28;20064;-63
2023/01/19 09:03:53;;;;;;;14.85;9.45;;;;;;;3.99;78.88;99068.16;5042542;28;20421;-63
2023/01/19 09:06:24;;;;;;;15.02;9.10;;;;;;;3.99;77.68;99070.94;5053762;28;20052;-64
2023/01/19 09:08:51;;;;;;;16.45;10.48;;;;;;;4.01;78.23;99074.19;5050829;28;20052;-63
2023/01/19 09:11:18;;;;;;;14.18;9.85;;;;;;;4.01;78.08;99068.69;5051995;28;20060;-65
2023/01/19 09:13:45;;;;;;;16.63;9.88;;;;;;;3.97;78.05;99073.16;5036185;28;20064;-65
2023/01/19 09:16:14;;;;;;;15.85;10.50;;;;;;;3.92;77.31;99078.75;5042582;28;20493;-65
2023/01/19 09:18:49;;;;;;;17.15;11.02;;;;;;;3.98;77.93;99082.25;5052301;28;20060;-63
2023/01/19 09:21:17;;;;;;;18.05;10.88;;;;;;;4.00;78.16;99097.34;5036738;28;20079;-65
2023/01/19 09:23:46;;;;;;;16.52;10.50;;;;;;;4.02;78.05;99097.03;5051428;28;20592;-65
2023/01/19 09:26:13;;;;;;;17.20;12.07;;;;;;;4.07;78.44;99097.78;5036563;28;20053;-64
2023/01/19 09:28:40;;;;;;;17.98;12.05;;;;;;;4.20;78.17;99101.66;5033688;28;20049;-65
2023/01/19 09:31:09;;;;;;;16.30;11.48;;;;;;;4.25;78.31;99097.97;5039950;28;20065;-65
2023/01/19 09:33:36;;;;;;;19.05;12.77;;;;;;;4.23;77.61;99112.06;5048312;28;20063;-65
2023/01/19 09:36:03;;;;;;;16.35;11.63;;;;;;;4.38;78.20;99105.41;5047713;28;20076;-65
2023/01/19 09:38:31;;;;;;;20.38;14.05;;;;;;;4.47;77.72;99114.63;5048729;28;20057;-65
2023/01/19 09:41:00;;;;;;;19.13;12.75;;;;;;;4.52;76.95;99123.91;5039588;28;20057;-65
2023/01/19 09:43:39;;;;;;;21.35;14.65;;;;;;;4.62;78.01;99126.41;5048130;28;20060;-64
2023/01/19 09:46:13;;;;;;;21.00;14.80;;;;;;;4.70;78.00;99133.97;5049182;28;20056;-65
2023/01/19 09:48:45;;;;;;;21.95;14.10;;;;;;;4.77;77.80;99142.66;5036517;28;20058;-65
2023/01/19 09:51:16;;;;;;;25.17;15.93;;;;;;;4.80;76.75;99132.94;5050369;28;20053;-65
2023/01/19 09:53:51;;;;;;;23.70;15.63;;;;;;;4.83;77.24;99140.59;5039543;28;20439;-65
2023/01/19 09:56:21;;;;;;;21.30;14.57;;;;;;;4.78;77.17;99143.47;5049226;28;20060;-65
2023/01/19 09:58:49;;;;;;;24.00;14.25;;;;;;;4.83;76.09;99154.38;5043131;28;20057;-65
2023/01/19 10:01:36;;;;;;;23.48;15.70;;;;;;;4.92;76.63;99143.47;5036821;28;20049;-65
2023/01/19 10:04:21;;;;;;;20.58;15.45;;;;;;;5.06;75.97;99147.00;5042562;28;20064;-64
2023/01/19 10:06:50;;;;;;;20.77;14.25;;;;;;;5.05;75.72;99151.69;5050912;28;20397;-65
2023/01/19 10:09:24;;;;;;;18.98;13.95;;;;;;;5.12;75.73;99150.47;5051161;28;20068;-65
2023/01/19 10:11:58;;;;;;;22.77;17.23;;;;;;;5.10;76.24;99161.81;5038533;28;20057;-64
2023/01/19 10:14:34;;;;;;;24.38;16.77;;;;;;;5.14;75.73;99164.75;5048009;28;20412;-65
2023/01/19 10:17:09;;;;;;;32.03;16.75;;;;;;;5.17;75.91;99161.41;5044696;28;20049;-64
2023/01/19 10:19:40;;;;;;;25.80;16.75;;;;;;;5.34;75.46;99155.22;5040081;28;20044;-64
2023/01/19 10:22:17;;;;;;;26.52;15.90;;;;;;;5.22;74.77;99164.84;5032532;28;20053;-65
2023/01/19 10:24:45;;;;;;;24.08;16.17;;;;;;;5.19;74.86;99162.72;5038694;28;20058;-64
2023/01/19 10:27:17;;;;;;;25.30;16.73;;;;;;;5.32;75.36;99161.03;5045258;28;20056;-64
2023/01/19 10:29:45;;;;;;;25.10;17.70;;;;;;;5.35;76.05;99174.22;5041477;28;20412;-64
2023/01/19 10:32:18;;;;;;;26.00;17.13;;;;;;;5.36;75.67;99172.28;5051059;28;20049;-65
2023/01/19 10:34:45;;;;;;;25.45;16.85;;;;;;;5.38;75.86;99178.31;5040913;28;20049;-65
2023/01/19 10:37:28;;;;;;;23.45;16.23;;;;;;;5.31;74.82;99173.19;5055350;28;20052;-65
2023/01/19 10:39:58;;;;;;;27.70;17.35;;;;;;;5.29;75.16;99180.97;5053974;28;20052;-65
2023/01/19 10:42:29;;;;;;;25.85;17.60;;;;;;;5.26;75.34;99179.66;5043666;28;20054;-65
2023/01/19 10:44:56;;;;;;;24.65;16.95;;;;;;;5.32;74.86;99176.78;5043155;28;20053;-65
2023/01/19 10:47:33;;;;;;;25.40;17.90;;;;;;;5.25;75.17;99183.56;5043687;28;20041;-65
2023/01/19 10:50:22;;;;;;;28.75;19.75;;;;;;;5.34;76.03;99186.41;5045947;28;20378;-66
2023/01/19 10:52:50;;;;;;;25.27;16.95;;;;;;;5.42;75.54;99182.91;5040563;28;20060;-65
2023/01/19 10:55:28;;;;;;;22.98;15.18;;;;;;;5.21;74.95;99185.31;5035939;28;20441;-65
2023/01/19 10:57:57;;;;;;;24.33;18.05;;;;;;;5.28;75.20;99174.63;5035573;28;20049;-64
2023/01/19 11:00:33;;;;;;;26.33;16.98;;;;;;;5.29;75.15;99187.34;5035876;28;20050;-64
2023/01/19 11:03:00;;;;;;;23.80;17.13;;;;;;;5.36;75.79;99186.09;5036016;28;20054;-65
2023/01/19 11:05:30;;;;;;;26.80;18.73;;;;;;;5.36;75.23;99188.84;5052964;28;20044;-64
2023/01/19 11:07:58;;;;;;;23.15;16.10;;;;;;;5.41;75.25;99186.78;5051137;28;20430;-64
2023/01/19 11:10:26;;;;;;;24.83;18.25;;;;;;;5.35;74.73;99199.06;5043539;28;20437;-64
2023/01/19 11:13:06;;;;;;;22.10;16.40;;;;;;;5.25;74.27;99210.34;5042941;28;20071;-64
2023/01/19 11:15:40;;;;;;;25.05;17.02;;;;;;;5.18;74.80;99196.94;5052641;28;20052;-64
2023/01/19 11:18:10;;;;;;;26.38;18.02;;;;;;;5.26;74.71;99207.25;5047326;28;20052;-64
2023/01/19 11:20:49;;;;;;;28.42;17.23;;;;;;;5.26;74.58;99215.53;5051492;28;20060;-64
2023/01/19 11:23:24;;;;;;;29.13;18.92;;;;;;;5.24;74.03;99211.47;5051305;28;20045;-64
2023/01/19 11:25:53;;;;;;;24.48;17.42;;;;;;;5.20;74.12;99200.22;5041946;28;20049;-64
2023/01/19 11:28:27;;;;;;;27.97;18.10;;;;;;;5.30;74.61;99199.19;5050803;28;20049;-63
2023/01/19 11:30:56;;;;;;;27.85;18.67;;;;;;;5.28;73.75;99201.44;5041661;28;20056;-63
2023/01/19 11:33:24;;;;;;;28.98;18.80;;;;;;;5.48;74.35;99205.66;5040319;28;20045;-65
2023/01/19 11:36:02;;;;;;;27.10;17.92;;;;;;;5.83;74.00;99201.22;5041212;28;20049;-64
2023/01/19 11:38:30;;;;;;;26.27;19.02;;;;;;;6.34;73.07;99198.31;5054106;28;20470;-64
2023/01/19 11:40:59;;;;;;;27.80;16.80;;;;;;;6.50;72.53;99205.88;5048381;28;20411;-64
2023/01/19 11:43:30;;;;;;;27.60;17.35;;;;;;;6.52;71.92;99200.03;5044160;28;20044;-64
2023/01/19 11:45:58;;;;;;;27.88;17.23;;;;;;;6.50;71.32;99205.88;5043817;28;20485;-64
2023/01/19 11:48:33;;;;;;;26.73;17.42;;;;;;;6.33;71.11;99214.09;5034951;28;20069;-64
2023/01/19 11:51:07;;;;;;;29.27;19.60;;;;;;;6.31;72.28;99210.84;5040697;28;20077;-65